createdAt,value
2023-03-27T00:01:09.401Z,9.64
2023-03-27T00:03:36.252Z,9.73
2023-03-27T00:06:05.876Z,9.66
2023-03-27T00:08:32.916Z,9.72
2023-03-27T00:11:00.265Z,9.70
2023-03-27T00:13:27.329Z,9.69
2023-03-27T00:15:55.608Z,9.75
2023-03-27T00:18:22.224Z,9.78
2023-03-27T00:20:49.451Z,9.80
2023-03-27T00:23:16.363Z,9.87
2023-03-27T00:25:42.960Z,9.89
2023-03-27T00:28:09.545Z,9.85
2023-03-27T00:30:37.409Z,9.81
2023-03-27T00:33:04.287Z,9.84
2023-03-27T00:35:30.895Z,9.86
2023-03-27T00:37:57.561Z,9.86
2023-03-27T00:40:24.194Z,9.76
2023-03-27T00:42:52.116Z,9.83
2023-03-27T00:45:19.947Z,9.77
2023-03-27T00:47:49.499Z,9.75
2023-03-27T00:50:20.844Z,9.78
2023-03-27T00:52:51.513Z,9.77
2023-03-27T00:55:20.368Z,9.69
2023-03-27T00:57:52.128Z,9.67
2023-03-27T01:00:19.440Z,9.73
2023-03-27T01:02:49.236Z,9.73
2023-03-27T01:05:17.959Z,9.76
2023-03-27T01:08:00.859Z,9.77
2023-03-27T01:10:57.294Z,9.66
2023-03-27T01:13:47.710Z,9.67
2023-03-27T01:16:35.101Z,9.63
2023-03-27T01:19:24.439Z,9.49
2023-03-27T01:21:51.058Z,9.39
2023-03-27T01:24:32.796Z,9.22
2023-03-27T01:26:59.260Z,9.18
2023-03-27T01:29:48.085Z,9.05
2023-03-27T01:32:59.402Z,8.92
2023-03-27T01:35:51.189Z,8.71
2023-03-27T01:38:27.073Z,8.56
2023-03-27T01:41:15.825Z,8.53
2023-03-27T01:44:12.970Z,8.47
2023-03-27T01:46:48.859Z,8.37
2023-03-27T01:49:29.525Z,8.13
2023-03-27T01:52:03.290Z,7.98
2023-03-27T01:54:34.101Z,7.99
2023-03-27T01:57:10.662Z,7.86
2023-03-27T01:59:43.387Z,7.83
2023-03-27T02:02:39.840Z,7.87
2023-03-27T02:05:16.822Z,7.88
2023-03-27T02:07:52.458Z,7.85
2023-03-27T02:10:25.152Z,7.81
2023-03-27T02:13:16.142Z,7.64
2023-03-27T02:15:44.414Z,7.57
2023-03-27T02:18:15.130Z,7.50
2023-03-27T02:20:41.954Z,7.49
2023-03-27T02:23:08.537Z,7.56
2023-03-27T02:25:53.296Z,7.38
2023-03-27T02:28:30.991Z,7.26
2023-03-27T02:31:37.982Z,7.18
2023-03-27T02:34:37.794Z,7.05
2023-03-27T02:37:35.031Z,7.10
2023-03-27T02:40:07.954Z,7.12
2023-03-27T02:42:51.860Z,7.12
2023-03-27T02:45:37.346Z,7.10
2023-03-27T02:48:11.348Z,7.12
2023-03-27T02:50:59.585Z,7.12
2023-03-27T02:53:28.588Z,7.14
2023-03-27T02:55:58.976Z,7.18
2023-03-27T02:58:38.148Z,7.21
2023-03-27T03:01:06.789Z,7.23
2023-03-27T03:03:41.946Z,7.29
2023-03-27T03:06:09.090Z,7.33
2023-03-27T03:08:35.917Z,7.27
2023-03-27T03:11:04.243Z,7.28
2023-03-27T03:13:30.843Z,7.35
2023-03-27T03:15:58.302Z,7.35
2023-03-27T03:18:25.136Z,7.38
2023-03-27T03:20:52.333Z,7.25
2023-03-27T03:23:18.816Z,7.25
2023-03-27T03:25:45.344Z,7.19
2023-03-27T03:28:11.953Z,7.24
2023-03-27T03:30:38.685Z,7.26
2023-03-27T03:33:05.255Z,7.28
2023-03-27T03:35:31.971Z,7.16
2023-03-27T03:37:58.499Z,7.26
2023-03-27T03:40:25.076Z,7.33
2023-03-27T03:42:52.297Z,7.35
2023-03-27T03:45:19.850Z,7.37
2023-03-27T03:47:47.720Z,7.32
2023-03-27T03:50:14.651Z,7.38
2023-03-27T03:52:41.520Z,7.39
2023-03-27T03:55:10.786Z,7.44
2023-03-27T03:57:37.829Z,7.50
2023-03-27T04:00:05.912Z,7.55
2023-03-27T04:02:32.552Z,7.57
2023-03-27T04:04:59.972Z,7.56
2023-03-27T04:07:27.603Z,7.53
2023-03-27T04:09:54.143Z,7.53
2023-03-27T04:12:20.726Z,7.43
2023-03-27T04:14:47.234Z,7.37
2023-03-27T04:17:13.849Z,7.35
2023-03-27T04:19:40.409Z,7.33
2023-03-27T04:22:07.043Z,7.41
2023-03-27T04:24:33.706Z,7.46
2023-03-27T04:27:00.284Z,7.47
2023-03-27T04:29:28.011Z,7.48
2023-03-27T04:31:54.517Z,7.50
2023-03-27T04:34:21.041Z,7.51
2023-03-27T04:36:47.560Z,7.51
2023-03-27T04:39:14.135Z,7.50
2023-03-27T04:41:40.698Z,7.52
2023-03-27T04:44:07.251Z,7.56
2023-03-27T04:46:33.918Z,7.57
2023-03-27T04:49:00.443Z,7.63
2023-03-27T04:51:27.101Z,7.65
2023-03-27T04:53:53.657Z,7.71
2023-03-27T04:56:20.173Z,7.76
2023-03-27T04:58:46.709Z,7.76
2023-03-27T05:01:13.325Z,7.79
2023-03-27T05:03:40.199Z,7.80
2023-03-27T05:06:07.681Z,7.83
2023-03-27T05:08:34.186Z,7.86
2023-03-27T05:11:00.733Z,7.93
2023-03-27T05:13:27.381Z,7.97
2023-03-27T05:15:54.064Z,8.01
2023-03-27T05:18:20.692Z,8.08
2023-03-27T05:20:47.614Z,8.11
2023-03-27T05:23:14.225Z,8.09
2023-03-27T05:25:40.825Z,8.08
2023-03-27T05:28:07.503Z,8.02
2023-03-27T05:30:34.855Z,8.05
2023-03-27T05:33:04.212Z,8.00
2023-03-27T05:35:30.862Z,7.98
2023-03-27T05:38:00.837Z,7.94
2023-03-27T05:40:28.245Z,7.96
2023-03-27T05:42:57.398Z,7.94
2023-03-27T05:45:23.969Z,7.90
2023-03-27T05:48:51.832Z,7.85
2023-03-27T05:51:18.413Z,7.86
2023-03-27T05:53:45.053Z,7.84
2023-03-27T05:56:11.695Z,7.82
2023-03-27T05:58:38.420Z,7.86
2023-03-27T06:01:05.356Z,7.90
2023-03-27T06:03:32.073Z,7.93
2023-03-27T06:05:58.893Z,7.95
2023-03-27T06:08:28.593Z,7.99
2023-03-27T06:10:55.617Z,7.95
2023-03-27T06:13:22.376Z,7.91
2023-03-27T06:15:48.998Z,7.88
2023-03-27T06:18:15.544Z,7.85
2023-03-27T06:20:42.275Z,7.90
2023-03-27T06:23:09.161Z,7.91
2023-03-27T06:25:37.912Z,7.98
2023-03-27T06:28:06.556Z,8.10
2023-03-27T06:30:33.126Z,8.19
2023-03-27T06:33:02.452Z,8.23
2023-03-27T06:35:31.283Z,8.29
2023-03-27T06:37:58.609Z,8.38
2023-03-27T06:40:26.826Z,8.47
2023-03-27T06:42:59.052Z,8.52
2023-03-27T06:45:35.020Z,8.62
2023-03-27T06:48:17.790Z,8.74
2023-03-27T06:50:49.169Z,8.81
2023-03-27T06:53:25.796Z,8.90
2023-03-27T06:55:53.643Z,9.07
2023-03-27T06:58:20.391Z,9.20
2023-03-27T07:00:48.311Z,9.27
2023-03-27T07:03:14.853Z,9.30
2023-03-27T07:05:41.869Z,9.32
2023-03-27T07:10:43.922Z,9.36
2023-03-27T07:13:10.724Z,9.48
2023-03-27T07:15:37.369Z,9.63
2023-03-27T07:18:06.356Z,9.68
2023-03-27T07:20:34.487Z,9.97
2023-03-27T07:23:01.836Z,10.16
2023-03-27T07:25:33.326Z,10.42
2023-03-27T07:28:00.741Z,10.66
2023-03-27T07:30:28.258Z,10.76
2023-03-27T07:32:55.345Z,10.77
2023-03-27T07:35:22.034Z,10.99
2023-03-27T07:37:48.715Z,11.05
2023-03-27T07:40:15.454Z,10.93
2023-03-27T07:42:48.793Z,10.85
2023-03-27T07:45:16.536Z,10.80
2023-03-27T07:47:45.239Z,10.40
2023-03-27T07:50:17.058Z,10.41
2023-03-27T07:52:50.699Z,10.20
2023-03-27T07:55:18.088Z,10.09
2023-03-27T07:57:59.705Z,10.05
2023-03-27T08:00:27.954Z,9.98
2023-03-27T08:03:04.932Z,9.90
2023-03-27T08:05:31.531Z,9.97
2023-03-27T08:07:58.158Z,9.98
2023-03-27T08:10:24.725Z,9.86
2023-03-27T08:12:51.434Z,9.87
2023-03-27T08:15:18.048Z,9.85
2023-03-27T08:17:45.004Z,9.82
2023-03-27T08:20:11.704Z,9.87
2023-03-27T08:22:38.269Z,9.88
2023-03-27T08:25:06.837Z,9.84
2023-03-27T08:27:33.494Z,9.88
2023-03-27T08:30:03.222Z,9.78
2023-03-27T08:32:29.818Z,9.80
2023-03-27T08:34:56.416Z,9.83
2023-03-27T08:37:23.290Z,9.85
2023-03-27T08:39:50.069Z,9.93
2023-03-27T08:42:22.346Z,9.93
2023-03-27T08:44:51.858Z,9.97
2023-03-27T08:47:28.738Z,10.07
2023-03-27T08:50:02.545Z,10.15
2023-03-27T08:52:31.698Z,10.21
2023-03-27T08:55:06.818Z,10.24
2023-03-27T08:57:33.524Z,10.34
2023-03-27T09:00:01.377Z,10.29
2023-03-27T09:02:44.713Z,10.36
2023-03-27T09:05:22.122Z,10.31
2023-03-27T09:08:02.968Z,10.30
2023-03-27T09:10:49.860Z,10.43
2023-03-27T09:13:48.349Z,10.54
2023-03-27T09:19:28.726Z,10.90
2023-03-27T09:22:07.284Z,11.14
2023-03-27T09:24:39.381Z,11.10
2023-03-27T09:27:16.593Z,10.99
2023-03-27T09:30:06.269Z,11.06
2023-03-27T09:32:34.014Z,11.16
2023-03-27T09:35:03.986Z,11.12
2023-03-27T09:37:31.158Z,10.78
2023-03-27T09:40:00.333Z,10.73
2023-03-27T09:42:33.361Z,10.71
2023-03-27T09:45:03.466Z,10.64
2023-03-27T09:47:52.261Z,10.51
2023-03-27T09:50:23.817Z,10.55
2023-03-27T09:52:51.896Z,10.55
2023-03-27T09:55:27.389Z,10.60
2023-03-27T09:57:59.554Z,10.72
2023-03-27T10:00:34.782Z,10.82
2023-03-27T10:03:04.216Z,10.87
2023-03-27T10:05:31.409Z,11.08
2023-03-27T10:08:01.666Z,11.25
2023-03-27T10:10:29.080Z,11.17
2023-03-27T10:12:58.046Z,11.00
2023-03-27T10:15:35.540Z,10.99
2023-03-27T10:18:07.139Z,10.92
2023-03-27T10:20:34.894Z,10.82
2023-03-27T10:23:06.872Z,10.75
2023-03-27T10:25:37.855Z,10.60
2023-03-27T10:28:19.635Z,10.49
2023-03-27T10:30:46.258Z,10.35
2023-03-27T10:33:13.140Z,10.30
2023-03-27T10:35:44.075Z,10.27
2023-03-27T10:38:14.271Z,10.33
2023-03-27T10:40:43.551Z,10.48
2023-03-27T10:43:13.901Z,10.63
2023-03-27T10:45:49.505Z,10.85
2023-03-27T10:48:27.856Z,11.05
2023-03-27T10:51:00.110Z,11.25
2023-03-27T10:53:37.223Z,11.37
2023-03-27T10:56:14.054Z,11.44
2023-03-27T10:59:03.809Z,11.41
2023-03-27T11:01:35.215Z,11.26
2023-03-27T11:04:27.755Z,11.06
2023-03-27T11:06:58.595Z,11.09
2023-03-27T11:09:27.826Z,11.19
2023-03-27T11:11:58.625Z,11.24
2023-03-27T11:14:38.163Z,11.16
2023-03-27T11:17:08.447Z,11.16
2023-03-27T11:19:46.034Z,11.12
2023-03-27T11:22:23.817Z,11.16
2023-03-27T11:24:55.844Z,11.06
2023-03-27T11:27:25.454Z,11.07
2023-03-27T11:30:17.624Z,10.96
2023-03-27T11:32:49.062Z,10.99
2023-03-27T11:35:24.512Z,10.93
2023-03-27T11:37:58.643Z,10.90
2023-03-27T11:40:48.790Z,10.97
2023-03-27T11:43:19.986Z,11.11
2023-03-27T11:45:59.948Z,11.12
2023-03-27T11:48:44.599Z,11.09
2023-03-27T11:51:47.195Z,11.09
2023-03-27T11:54:36.571Z,11.11
2023-03-27T11:57:12.704Z,11.09
2023-03-27T12:00:02.858Z,11.11
2023-03-27T12:02:57.625Z,11.13
2023-03-27T12:05:46.173Z,11.10
2023-03-27T12:08:58.612Z,11.13
2023-03-27T12:11:26.951Z,11.34
2023-03-27T12:14:02.101Z,11.51
2023-03-27T12:16:28.905Z,11.59
2023-03-27T12:19:03.886Z,11.63
2023-03-27T12:21:52.081Z,11.57
2023-03-27T12:24:53.420Z,11.61
2023-03-27T12:27:43.917Z,11.43
2023-03-27T12:30:32.011Z,11.35
2023-03-27T12:33:27.664Z,11.31
2023-03-27T12:35:59.060Z,11.17
2023-03-27T12:38:32.568Z,11.10
2023-03-27T12:41:00.455Z,11.00
2023-03-27T12:43:36.740Z,11.16
2023-03-27T12:46:24.586Z,11.11
2023-03-27T12:48:54.339Z,10.92
2023-03-27T12:51:41.163Z,10.67
2023-03-27T12:54:35.107Z,10.45
2023-03-27T12:57:13.901Z,10.27
2023-03-27T12:59:57.233Z,10.37
2023-03-27T13:02:54.672Z,10.44
2023-03-27T13:05:41.426Z,10.28
2023-03-27T13:08:49.399Z,10.28
2023-03-27T13:11:38.277Z,10.35
2023-03-27T13:14:46.633Z,10.38
2023-03-27T13:17:43.871Z,10.43
2023-03-27T13:20:48.715Z,10.63
2023-03-27T13:23:35.757Z,10.79
2023-03-27T13:26:46.956Z,11.14
2023-03-27T13:29:24.503Z,11.37
2023-03-27T13:31:52.950Z,11.69
2023-03-27T13:34:34.294Z,11.70
2023-03-27T13:37:10.059Z,11.94
2023-03-27T13:40:03.146Z,12.04
2023-03-27T13:42:44.414Z,12.27
2023-03-27T13:45:20.976Z,12.29
2023-03-27T13:48:08.784Z,12.20
2023-03-27T13:51:10.276Z,12.33
2023-03-27T13:53:55.458Z,12.18
2023-03-27T13:57:03.510Z,12.13
2023-03-27T14:00:03.557Z,12.17
2023-03-27T14:02:49.312Z,12.15
2023-03-27T14:05:47.435Z,12.29
2023-03-27T14:08:43.281Z,12.06
2023-03-27T14:11:38.902Z,11.55
2023-03-27T14:14:42.359Z,11.57
2023-03-27T14:17:30.104Z,11.57
2023-03-27T14:20:02.463Z,11.54
2023-03-27T14:22:38.391Z,11.44
2023-03-27T14:25:12.534Z,11.39
2023-03-27T14:27:42.441Z,11.29
2023-03-27T14:30:19.263Z,11.14
2023-03-27T14:32:47.282Z,11.04
2023-03-27T14:35:44.771Z,10.93
2023-03-27T14:38:19.324Z,11.05
2023-03-27T14:40:46.352Z,11.06
2023-03-27T14:43:16.708Z,11.16
2023-03-27T14:45:44.052Z,11.14
2023-03-27T14:48:21.350Z,10.92
2023-03-27T14:50:52.492Z,10.54
2023-03-27T14:53:25.156Z,10.23
2023-03-27T14:55:55.402Z,9.73
2023-03-27T14:58:24.990Z,9.74
2023-03-27T15:00:58.300Z,9.35
2023-03-27T15:03:27.461Z,9.25
2023-03-27T15:06:15.222Z,9.14
2023-03-27T15:08:45.216Z,8.93
2023-03-27T15:11:15.965Z,8.85
2023-03-27T15:13:42.618Z,8.62
2023-03-27T15:16:13.489Z,8.56
2023-03-27T15:19:02.536Z,8.52
2023-03-27T15:21:52.386Z,8.44
2023-03-27T15:24:29.425Z,8.40
2023-03-27T15:27:05.806Z,8.28
2023-03-27T15:29:44.466Z,8.20
2023-03-27T15:32:15.926Z,8.18
2023-03-27T15:34:55.063Z,8.13
2023-03-27T15:37:24.601Z,8.14
2023-03-27T15:40:09.202Z,8.14
2023-03-27T15:42:53.450Z,7.88
2023-03-27T15:45:34.338Z,7.83
2023-03-27T15:48:21.606Z,7.85
2023-03-27T15:50:55.007Z,7.71
2023-03-27T15:53:32.263Z,7.60
2023-03-27T15:56:02.085Z,7.62
2023-03-27T15:58:43.330Z,7.56
2023-03-27T16:01:18.670Z,7.57
2023-03-27T16:03:47.262Z,7.61
2023-03-27T16:06:24.564Z,7.43
2023-03-27T16:08:51.342Z,7.47
2023-03-27T16:11:38.583Z,7.46
2023-03-27T16:14:18.524Z,7.38
2023-03-27T16:16:45.127Z,7.22
2023-03-27T16:19:13.428Z,7.12
2023-03-27T16:21:56.017Z,7.03
2023-03-27T16:24:22.719Z,7.02
2023-03-27T16:26:50.652Z,6.97
2023-03-27T16:29:18.657Z,6.80
2023-03-27T16:31:45.450Z,6.74
2023-03-27T16:34:22.220Z,6.69
2023-03-27T16:36:50.369Z,6.66
2023-03-27T16:39:16.891Z,6.44
2023-03-27T16:41:43.513Z,6.44
2023-03-27T16:44:10.124Z,6.46
2023-03-27T16:46:36.712Z,6.23
2023-03-27T16:49:03.341Z,6.17
2023-03-27T16:51:31.203Z,6.03
2023-03-27T16:53:57.720Z,6.07
2023-03-27T16:56:24.331Z,6.09
2023-03-27T16:58:50.877Z,5.83
2023-03-27T17:01:17.753Z,5.70
2023-03-27T17:03:44.491Z,5.57
2023-03-27T17:06:11.767Z,5.46
2023-03-27T17:08:38.543Z,5.47
2023-03-27T17:11:11.003Z,5.56
2023-03-27T17:13:40.219Z,5.51
2023-03-27T17:16:08.286Z,5.45
2023-03-27T17:18:35.203Z,5.44
2023-03-27T17:21:01.834Z,5.43
2023-03-27T17:23:28.477Z,5.25
2023-03-27T17:25:55.377Z,4.84
2023-03-27T17:28:22.099Z,4.69
2023-03-27T17:30:57.008Z,4.57
2023-03-27T17:33:27.988Z,4.42
2023-03-27T17:35:55.145Z,4.27
2023-03-27T17:38:21.948Z,4.16
2023-03-27T17:40:49.181Z,3.98
2023-03-27T17:43:16.405Z,3.71
2023-03-27T17:45:43.344Z,3.58
2023-03-27T17:48:10.746Z,3.40
2023-03-27T17:50:38.719Z,3.16
2023-03-27T17:53:05.308Z,3.07
2023-03-27T17:55:31.890Z,2.99
2023-03-27T17:58:08.295Z,2.96
2023-03-27T18:00:37.142Z,2.91
2023-03-27T18:03:04.119Z,2.82
2023-03-27T18:05:30.798Z,2.89
2023-03-27T18:07:58.438Z,2.86
2023-03-27T18:10:24.998Z,2.85
2023-03-27T18:12:51.683Z,2.87
2023-03-27T18:15:18.609Z,2.86
2023-03-27T18:17:45.687Z,2.87
2023-03-27T18:20:12.474Z,2.82
2023-03-27T18:22:39.796Z,2.89
2023-03-27T18:25:08.161Z,2.87
2023-03-27T18:27:36.429Z,2.91
2023-03-27T18:30:03.008Z,2.91
2023-03-27T18:32:29.997Z,2.92
2023-03-27T18:34:59.348Z,2.95
2023-03-27T18:37:26.073Z,2.87
2023-03-27T18:39:52.667Z,2.83
2023-03-27T18:42:19.274Z,2.87
2023-03-27T18:44:45.894Z,2.82
2023-03-27T18:47:12.393Z,2.83
2023-03-27T18:49:39.000Z,2.79
2023-03-27T18:52:05.593Z,2.68
2023-03-27T18:54:32.254Z,2.73
2023-03-27T18:56:58.894Z,2.62
2023-03-27T18:59:25.516Z,2.63
2023-03-27T19:01:52.225Z,2.64
2023-03-27T19:04:18.794Z,2.55
2023-03-27T19:06:45.319Z,2.56
2023-03-27T19:09:13.548Z,2.56
2023-03-27T19:11:40.228Z,2.56
2023-03-27T19:14:10.120Z,2.58
2023-03-27T19:16:36.778Z,2.53
2023-03-27T19:19:03.792Z,2.57
2023-03-27T19:21:30.372Z,2.42
2023-03-27T19:23:57.131Z,2.38
2023-03-27T19:26:23.732Z,2.38
2023-03-27T19:28:50.328Z,2.36
2023-03-27T19:31:17.151Z,2.44
2023-03-27T19:33:44.025Z,2.40
2023-03-27T19:36:10.662Z,2.38
2023-03-27T19:38:37.377Z,2.41
2023-03-27T19:41:08.372Z,2.47
2023-03-27T19:43:35.077Z,2.45
2023-03-27T19:46:14.741Z,2.41
2023-03-27T19:48:46.429Z,2.38
2023-03-27T19:51:13.214Z,2.30
2023-03-27T19:53:39.986Z,2.29
2023-03-27T19:56:06.615Z,2.21
2023-03-27T19:58:33.480Z,2.24
2023-03-27T20:01:00.128Z,2.19
2023-03-27T20:03:26.911Z,2.01
2023-03-27T20:05:55.504Z,1.91
2023-03-27T20:08:33.981Z,1.80
2023-03-27T20:11:01.025Z,1.79
2023-03-27T20:13:27.996Z,1.74
2023-03-27T20:15:54.545Z,1.75
2023-03-27T20:18:21.178Z,1.64
2023-03-27T20:20:48.268Z,1.60
2023-03-27T20:23:14.798Z,1.51
2023-03-27T20:25:41.613Z,1.51
2023-03-27T20:28:08.301Z,1.49
2023-03-27T20:30:37.850Z,1.50
2023-03-27T20:33:05.506Z,1.39
2023-03-27T20:35:33.349Z,1.38
2023-03-27T20:38:00.301Z,1.40
2023-03-27T20:40:27.060Z,1.35
2023-03-27T20:42:53.954Z,1.51
2023-03-27T20:45:21.390Z,1.41
2023-03-27T20:47:48.254Z,1.30
2023-03-27T20:50:16.113Z,1.41
2023-03-27T20:52:43.670Z,1.36
2023-03-27T20:55:15.292Z,1.44
2023-03-27T20:57:46.649Z,1.45
2023-03-27T21:00:13.681Z,1.47
2023-03-27T21:02:40.332Z,1.53
2023-03-27T21:05:07.202Z,1.57
2023-03-27T21:07:33.836Z,1.56
2023-03-27T21:10:00.933Z,1.56
2023-03-27T21:12:27.498Z,1.57
2023-03-27T21:14:54.263Z,1.49
2023-03-27T21:17:20.872Z,1.57
2023-03-27T21:19:47.442Z,1.50
2023-03-27T21:22:14.014Z,1.52
2023-03-27T21:24:40.619Z,1.50
2023-03-27T21:27:07.198Z,1.47
2023-03-27T21:29:33.871Z,1.42
2023-03-27T21:32:00.749Z,1.48
2023-03-27T21:34:27.364Z,1.64
2023-03-27T21:36:53.952Z,1.51
2023-03-27T21:39:20.650Z,1.52
2023-03-27T21:41:47.388Z,1.55
2023-03-27T21:44:13.950Z,1.56
2023-03-27T21:46:40.631Z,1.64
2023-03-27T21:49:07.160Z,1.62
2023-03-27T21:51:35.829Z,1.63
2023-03-27T21:54:02.524Z,1.61
2023-03-27T21:56:29.109Z,1.63
2023-03-27T21:58:55.632Z,1.70
2023-03-27T22:01:22.599Z,1.76
2023-03-27T22:03:49.125Z,1.74
2023-03-27T22:06:15.889Z,1.78
2023-03-27T22:08:43.594Z,1.82
2023-03-27T22:11:12.048Z,1.83
2023-03-27T22:13:39.434Z,1.82
2023-03-27T22:16:14.517Z,1.88
2023-03-27T22:18:41.793Z,1.93
2023-03-27T22:21:16.575Z,1.86
2023-03-27T22:23:43.420Z,1.94
2023-03-27T22:26:10.335Z,1.98
2023-03-27T22:28:37.263Z,1.98
2023-03-27T22:31:04.165Z,1.99
2023-03-27T22:33:31.407Z,1.97
2023-03-27T22:35:58.213Z,2.00
2023-03-27T22:38:25.111Z,2.06
2023-03-27T22:40:51.759Z,2.17
2023-03-27T22:43:23.365Z,2.20
2023-03-27T22:45:50.509Z,2.28
2023-03-27T22:48:17.071Z,2.31
2023-03-27T22:50:43.788Z,2.34
2023-03-27T22:53:10.363Z,2.38
2023-03-27T22:55:37.566Z,2.39
2023-03-27T22:58:04.063Z,2.47
2023-03-27T23:00:30.770Z,2.53
2023-03-27T23:02:57.399Z,2.61
2023-03-27T23:05:24.608Z,2.62
2023-03-27T23:07:53.457Z,2.65
2023-03-27T23:10:20.182Z,2.73
2023-03-27T23:12:46.910Z,2.73
2023-03-27T23:15:13.453Z,2.69
2023-03-27T23:17:40.053Z,2.67
2023-03-27T23:20:07.186Z,2.75
2023-03-27T23:22:33.904Z,2.77
2023-03-27T23:25:00.671Z,2.82
2023-03-27T23:27:27.300Z,2.82
2023-03-27T23:29:54.039Z,2.82
2023-03-27T23:32:20.646Z,2.83
2023-03-27T23:34:47.622Z,2.88
2023-03-27T23:37:14.324Z,2.88
2023-03-27T23:39:40.965Z,2.91
2023-03-27T23:42:07.498Z,2.89
2023-03-27T23:44:34.066Z,2.95
2023-03-27T23:47:00.568Z,2.96
2023-03-27T23:49:27.191Z,3.00
2023-03-27T23:51:53.785Z,3.02
2023-03-27T23:54:20.611Z,3.05
2023-03-27T23:56:47.168Z,2.97
2023-03-27T23:59:14.030Z,2.95
